sensor_id;sensor_type;location;lat;lon;timestamp;temperature;humidity
60309;DHT22;50313;52.894;6.492;2023-11-19T00:02:19;11.60;99.90
60309;DHT22;50313;52.894;6.492;2023-11-19T00:04:45;11.60;99.90
60309;DHT22;50313;52.894;6.492;2023-11-19T00:07:11;11.70;99.90
60309;DHT22;50313;52.894;6.492;2023-11-19T00:09:39;11.70;99.90
60309;DHT22;50313;52.894;6.492;2023-11-19T00:12:05;11.70;99.90
60309;DHT22;50313;52.894;6.492;2023-11-19T00:14:32;11.70;99.90
60309;DHT22;50313;52.894;6.492;2023-11-19T00:16:57;11.80;99.90
60309;DHT22;50313;52.894;6.492;2023-11-19T00:19:23;11.90;99.90
60309;DHT22;50313;52.894;6.492;2023-11-19T00:21:49;11.90;99.90
60309;DHT22;50313;52.894;6.492;2023-11-19T00:24:15;11.90;99.90
60309;DHT22;50313;52.894;6.492;2023-11-19T00:26:43;11.90;99.90
60309;DHT22;50313;52.894;6.492;2023-11-19T00:29:09;12.00;99.90
60309;DHT22;50313;52.894;6.492;2023-11-19T00:31:36;11.90;99.90
60309;DHT22;50313;52.894;6.492;2023-11-19T00:34:02;12.00;99.90
60309;DHT22;50313;52.894;6.492;2023-11-19T00:36:28;12.00;99.90
60309;DHT22;50313;52.894;6.492;2023-11-19T00:38:54;12.00;99.90
60309;DHT22;50313;52.894;6.492;2023-11-19T00:41:20;11.90;99.90
60309;DHT22;50313;52.894;6.492;2023-11-19T00:43:46;11.90;99.90
60309;DHT22;50313;52.894;6.492;2023-11-19T00:46:12;12.00;99.90
60309;DHT22;50313;52.894;6.492;2023-11-19T00:48:39;11.90;99.90
60309;DHT22;50313;52.894;6.492;2023-11-19T00:51:05;11.90;99.90
60309;DHT22;50313;52.894;6.492;2023-11-19T00:53:31;11.90;99.90
60309;DHT22;50313;52.894;6.492;2023-11-19T00:55:58;12.00;99.90
60309;DHT22;50313;52.894;6.492;2023-11-19T00:58:23;11.90;99.90
60309;DHT22;50313;52.894;6.492;2023-11-19T01:00:49;11.80;99.90
60309;DHT22;50313;52.894;6.492;2023-11-19T01:03:15;11.90;99.90
60309;DHT22;50313;52.894;6.492;2023-11-19T01:05:41;12.00;99.90
60309;DHT22;50313;52.894;6.492;2023-11-19T01:08:07;12.00;99.90
60309;DHT22;50313;52.894;6.492;2023-11-19T01:10:33;12.00;99.90
60309;DHT22;50313;52.894;6.492;2023-11-19T01:12:59;12.00;99.90
60309;DHT22;50313;52.894;6.492;2023-11-19T01:15:25;12.10;99.90
60309;DHT22;50313;52.894;6.492;2023-11-19T01:17:51;12.00;99.90
60309;DHT22;50313;52.894;6.492;2023-11-19T01:20:17;12.00;99.90
60309;DHT22;50313;52.894;6.492;2023-11-19T01:22:43;12.10;99.90
60309;DHT22;50313;52.894;6.492;2023-11-19T01:25:09;12.10;99.90
60309;DHT22;50313;52.894;6.492;2023-11-19T01:27:34;12.10;99.90
60309;DHT22;50313;52.894;6.492;2023-11-19T01:30:02;12.20;99.90
60309;DHT22;50313;52.894;6.492;2023-11-19T01:32:29;12.20;99.90
60309;DHT22;50313;52.894;6.492;2023-11-19T01:34:55;12.10;99.90
60309;DHT22;50313;52.894;6.492;2023-11-19T01:37:20;12.20;99.90
60309;DHT22;50313;52.894;6.492;2023-11-19T01:39:46;12.20;99.90
60309;DHT22;50313;52.894;6.492;2023-11-19T01:42:12;12.20;99.90
60309;DHT22;50313;52.894;6.492;2023-11-19T01:44:38;12.20;99.90
60309;DHT22;50313;52.894;6.492;2023-11-19T01:47:04;12.20;99.90
60309;DHT22;50313;52.894;6.492;2023-11-19T01:49:32;12.20;99.90
60309;DHT22;50313;52.894;6.492;2023-11-19T01:51:58;12.20;99.90
60309;DHT22;50313;52.894;6.492;2023-11-19T01:54:25;12.30;99.90
60309;DHT22;50313;52.894;6.492;2023-11-19T01:56:53;12.20;99.90
60309;DHT22;50313;52.894;6.492;2023-11-19T01:59:22;12.30;99.90
60309;DHT22;50313;52.894;6.492;2023-11-19T02:01:55;12.30;99.90
60309;DHT22;50313;52.894;6.492;2023-11-19T02:04:21;12.30;99.90
60309;DHT22;50313;52.894;6.492;2023-11-19T02:06:48;12.30;99.90
60309;DHT22;50313;52.894;6.492;2023-11-19T02:09:15;12.30;99.90
60309;DHT22;50313;52.894;6.492;2023-11-19T02:11:45;12.30;99.90
60309;DHT22;50313;52.894;6.492;2023-11-19T02:14:15;12.30;99.90
60309;DHT22;50313;52.894;6.492;2023-11-19T02:16:41;12.40;99.90
60309;DHT22;50313;52.894;6.492;2023-11-19T02:19:06;12.40;99.90
60309;DHT22;50313;52.894;6.492;2023-11-19T02:21:33;12.40;99.90
60309;DHT22;50313;52.894;6.492;2023-11-19T02:23:59;12.40;99.90
60309;DHT22;50313;52.894;6.492;2023-11-19T02:26:53;12.40;99.90
60309;DHT22;50313;52.894;6.492;2023-11-19T02:29:23;12.40;99.90
60309;DHT22;50313;52.894;6.492;2023-11-19T02:32:07;12.40;99.90
60309;DHT22;50313;52.894;6.492;2023-11-19T02:34:34;12.30;99.90
60309;DHT22;50313;52.894;6.492;2023-11-19T02:37:01;12.30;99.90
60309;DHT22;50313;52.894;6.492;2023-11-19T02:39:26;12.30;99.90
60309;DHT22;50313;52.894;6.492;2023-11-19T02:41:52;12.30;99.90
60309;DHT22;50313;52.894;6.492;2023-11-19T02:44:18;12.30;99.90
60309;DHT22;50313;52.894;6.492;2023-11-19T02:46:44;12.30;99.90
60309;DHT22;50313;52.894;6.492;2023-11-19T02:49:10;12.30;99.90
60309;DHT22;50313;52.894;6.492;2023-11-19T02:51:36;12.30;99.90
60309;DHT22;50313;52.894;6.492;2023-11-19T02:54:02;12.40;99.90
60309;DHT22;50313;52.894;6.492;2023-11-19T02:56:29;12.30;99.90
60309;DHT22;50313;52.894;6.492;2023-11-19T02:59:00;12.30;99.90
60309;DHT22;50313;52.894;6.492;2023-11-19T03:01:32;12.20;99.90
60309;DHT22;50313;52.894;6.492;2023-11-19T03:04:00;12.20;99.90
60309;DHT22;50313;52.894;6.492;2023-11-19T03:06:27;12.20;99.90
60309;DHT22;50313;52.894;6.492;2023-11-19T03:08:54;12.20;99.90
60309;DHT22;50313;52.894;6.492;2023-11-19T03:11:20;12.10;99.90
60309;DHT22;50313;52.894;6.492;2023-11-19T03:13:46;12.20;99.90
60309;DHT22;50313;52.894;6.492;2023-11-19T03:16:12;12.20;99.90
60309;DHT22;50313;52.894;6.492;2023-11-19T03:18:38;12.10;99.90
60309;DHT22;50313;52.894;6.492;2023-11-19T03:21:07;12.10;99.90
60309;DHT22;50313;52.894;6.492;2023-11-19T03:23:34;12.10;99.90
60309;DHT22;50313;52.894;6.492;2023-11-19T03:26:00;12.10;99.90
60309;DHT22;50313;52.894;6.492;2023-11-19T03:28:29;12.10;99.90
60309;DHT22;50313;52.894;6.492;2023-11-19T03:30:55;12.00;99.90
60309;DHT22;50313;52.894;6.492;2023-11-19T03:33:20;12.00;99.90
60309;DHT22;50313;52.894;6.492;2023-11-19T03:35:46;12.10;99.90
60309;DHT22;50313;52.894;6.492;2023-11-19T03:38:12;12.00;99.90
60309;DHT22;50313;52.894;6.492;2023-11-19T03:40:38;12.00;99.90
60309;DHT22;50313;52.894;6.492;2023-11-19T03:43:04;12.10;99.90
60309;DHT22;50313;52.894;6.492;2023-11-19T03:45:30;12.10;99.90
60309;DHT22;50313;52.894;6.492;2023-11-19T03:47:56;12.10;99.90
60309;DHT22;50313;52.894;6.492;2023-11-19T03:50:22;12.10;99.90
60309;DHT22;50313;52.894;6.492;2023-11-19T03:52:49;12.00;99.90
60309;DHT22;50313;52.894;6.492;2023-11-19T03:55:15;12.10;99.90
60309;DHT22;50313;52.894;6.492;2023-11-19T03:57:41;12.10;99.90
60309;DHT22;50313;52.894;6.492;2023-11-19T04:00:07;12.00;99.90
60309;DHT22;50313;52.894;6.492;2023-11-19T04:02:39;12.00;99.90
60309;DHT22;50313;52.894;6.492;2023-11-19T04:05:05;11.90;99.90
60309;DHT22;50313;52.894;6.492;2023-11-19T04:07:32;11.90;99.90
60309;DHT22;50313;52.894;6.492;2023-11-19T04:09:58;11.80;99.90
60309;DHT22;50313;52.894;6.492;2023-11-19T04:12:24;11.80;99.90
60309;DHT22;50313;52.894;6.492;2023-11-19T04:14:50;11.80;99.90
60309;DHT22;50313;52.894;6.492;2023-11-19T04:17:15;11.70;99.90
60309;DHT22;50313;52.894;6.492;2023-11-19T04:19:41;11.70;99.90
60309;DHT22;50313;52.894;6.492;2023-11-19T04:22:07;11.70;99.90
60309;DHT22;50313;52.894;6.492;2023-11-19T04:24:34;11.60;99.90
60309;DHT22;50313;52.894;6.492;2023-11-19T04:27:00;11.60;99.90
60309;DHT22;50313;52.894;6.492;2023-11-19T04:29:26;11.60;99.90
60309;DHT22;50313;52.894;6.492;2023-11-19T04:31:52;11.60;99.90
60309;DHT22;50313;52.894;6.492;2023-11-19T04:34:17;11.50;99.90
60309;DHT22;50313;52.894;6.492;2023-11-19T04:36:43;11.60;99.90
60309;DHT22;50313;52.894;6.492;2023-11-19T04:39:09;11.50;99.90
60309;DHT22;50313;52.894;6.492;2023-11-19T04:41:46;11.50;99.90
60309;DHT22;50313;52.894;6.492;2023-11-19T04:44:12;11.50;99.90
60309;DHT22;50313;52.894;6.492;2023-11-19T04:46:38;11.50;99.90
60309;DHT22;50313;52.894;6.492;2023-11-19T04:49:04;11.50;99.90
60309;DHT22;50313;52.894;6.492;2023-11-19T04:51:30;11.50;99.90
60309;DHT22;50313;52.894;6.492;2023-11-19T04:53:56;11.50;99.90
60309;DHT22;50313;52.894;6.492;2023-11-19T04:56:22;11.50;99.90
60309;DHT22;50313;52.894;6.492;2023-11-19T04:58:48;11.40;99.90
60309;DHT22;50313;52.894;6.492;2023-11-19T05:01:14;11.40;99.90
60309;DHT22;50313;52.894;6.492;2023-11-19T05:03:43;11.40;99.90
60309;DHT22;50313;52.894;6.492;2023-11-19T05:06:09;11.40;99.90
60309;DHT22;50313;52.894;6.492;2023-11-19T05:08:35;11.30;99.90
60309;DHT22;50313;52.894;6.492;2023-11-19T05:11:01;11.30;99.90
60309;DHT22;50313;52.894;6.492;2023-11-19T05:13:27;11.30;99.90
60309;DHT22;50313;52.894;6.492;2023-11-19T05:15:52;11.30;99.90
60309;DHT22;50313;52.894;6.492;2023-11-19T05:18:18;11.20;99.90
60309;DHT22;50313;52.894;6.492;2023-11-19T05:20:45;11.30;99.90
60309;DHT22;50313;52.894;6.492;2023-11-19T05:23:11;11.40;99.90
60309;DHT22;50313;52.894;6.492;2023-11-19T05:25:37;11.30;99.90
60309;DHT22;50313;52.894;6.492;2023-11-19T05:28:03;11.40;99.90
60309;DHT22;50313;52.894;6.492;2023-11-19T05:30:28;11.40;99.90
60309;DHT22;50313;52.894;6.492;2023-11-19T05:32:54;11.40;99.90
60309;DHT22;50313;52.894;6.492;2023-11-19T05:35:20;11.40;99.90
60309;DHT22;50313;52.894;6.492;2023-11-19T05:37:45;11.50;99.90
60309;DHT22;50313;52.894;6.492;2023-11-19T05:40:11;11.50;99.90
60309;DHT22;50313;52.894;6.492;2023-11-19T05:42:43;11.40;99.90
60309;DHT22;50313;52.894;6.492;2023-11-19T05:45:12;11.50;99.90
60309;DHT22;50313;52.894;6.492;2023-11-19T05:47:38;11.50;99.90
60309;DHT22;50313;52.894;6.492;2023-11-19T05:50:04;11.50;99.90
60309;DHT22;50313;52.894;6.492;2023-11-19T05:52:31;11.50;99.90
60309;DHT22;50313;52.894;6.492;2023-11-19T05:55:01;11.50;99.90
60309;DHT22;50313;52.894;6.492;2023-11-19T05:57:35;11.50;99.90
60309;DHT22;50313;52.894;6.492;2023-11-19T06:00:00;11.40;99.90
60309;DHT22;50313;52.894;6.492;2023-11-19T06:02:26;11.30;99.90
60309;DHT22;50313;52.894;6.492;2023-11-19T06:04:53;11.30;99.90
60309;DHT22;50313;52.894;6.492;2023-11-19T06:07:19;11.20;99.90
60309;DHT22;50313;52.894;6.492;2023-11-19T06:09:45;11.20;99.90
60309;DHT22;50313;52.894;6.492;2023-11-19T06:12:11;11.20;99.90
60309;DHT22;50313;52.894;6.492;2023-11-19T06:14:37;11.20;99.90
60309;DHT22;50313;52.894;6.492;2023-11-19T06:17:03;11.20;99.90
60309;DHT22;50313;52.894;6.492;2023-11-19T06:19:31;11.10;99.90
60309;DHT22;50313;52.894;6.492;2023-11-19T06:21:56;11.10;99.90
60309;DHT22;50313;52.894;6.492;2023-11-19T06:24:22;11.10;99.90
60309;DHT22;50313;52.894;6.492;2023-11-19T06:26:48;11.10;99.90
60309;DHT22;50313;52.894;6.492;2023-11-19T06:29:13;11.10;99.90
60309;DHT22;50313;52.894;6.492;2023-11-19T06:31:44;11.00;99.90
60309;DHT22;50313;52.894;6.492;2023-11-19T06:34:10;11.10;99.90
60309;DHT22;50313;52.894;6.492;2023-11-19T06:36:35;11.10;99.90
60309;DHT22;50313;52.894;6.492;2023-11-19T06:39:01;11.10;99.90
60309;DHT22;50313;52.894;6.492;2023-11-19T06:41:28;11.00;99.90
60309;DHT22;50313;52.894;6.492;2023-11-19T06:43:54;11.00;99.90
60309;DHT22;50313;52.894;6.492;2023-11-19T06:46:20;11.00;99.90
60309;DHT22;50313;52.894;6.492;2023-11-19T06:48:46;11.00;99.90
60309;DHT22;50313;52.894;6.492;2023-11-19T06:51:12;11.10;99.90
60309;DHT22;50313;52.894;6.492;2023-11-19T06:53:38;11.10;99.90
60309;DHT22;50313;52.894;6.492;2023-11-19T06:56:27;11.00;99.90
60309;DHT22;50313;52.894;6.492;2023-11-19T06:58:53;11.10;99.90
60309;DHT22;50313;52.894;6.492;2023-11-19T07:01:20;11.20;99.90
60309;DHT22;50313;52.894;6.492;2023-11-19T07:03:46;11.10;99.90
60309;DHT22;50313;52.894;6.492;2023-11-19T07:06:12;11.10;99.90
60309;DHT22;50313;52.894;6.492;2023-11-19T07:08:41;11.20;99.90
60309;DHT22;50313;52.894;6.492;2023-11-19T07:11:10;11.20;99.90
60309;DHT22;50313;52.894;6.492;2023-11-19T07:13:37;11.20;99.90
60309;DHT22;50313;52.894;6.492;2023-11-19T07:16:03;11.20;99.90
60309;DHT22;50313;52.894;6.492;2023-11-19T07:18:29;11.30;99.90
60309;DHT22;50313;52.894;6.492;2023-11-19T07:20:55;11.30;99.90
60309;DHT22;50313;52.894;6.492;2023-11-19T07:23:22;11.20;99.90
60309;DHT22;50313;52.894;6.492;2023-11-19T07:25:48;11.30;99.90
60309;DHT22;50313;52.894;6.492;2023-11-19T07:28:16;11.30;99.90
60309;DHT22;50313;52.894;6.492;2023-11-19T07:30:42;11.30;99.90
60309;DHT22;50313;52.894;6.492;2023-11-19T07:33:07;11.20;99.90
60309;DHT22;50313;52.894;6.492;2023-11-19T07:35:33;11.20;99.90
60309;DHT22;50313;52.894;6.492;2023-11-19T07:37:59;11.20;99.90
60309;DHT22;50313;52.894;6.492;2023-11-19T07:40:25;11.20;99.90
60309;DHT22;50313;52.894;6.492;2023-11-19T07:42:51;11.10;99.90
60309;DHT22;50313;52.894;6.492;2023-11-19T07:45:17;11.20;99.90
60309;DHT22;50313;52.894;6.492;2023-11-19T07:47:43;11.20;99.90
60309;DHT22;50313;52.894;6.492;2023-11-19T07:50:10;11.20;99.90
60309;DHT22;50313;52.894;6.492;2023-11-19T07:52:38;11.20;99.90
60309;DHT22;50313;52.894;6.492;2023-11-19T07:55:04;11.20;99.90
60309;DHT22;50313;52.894;6.492;2023-11-19T07:57:30;11.20;99.90
60309;DHT22;50313;52.894;6.492;2023-11-19T07:59:59;11.30;99.90
60309;DHT22;50313;52.894;6.492;2023-11-19T08:02:27;11.30;99.90
60309;DHT22;50313;52.894;6.492;2023-11-19T08:04:52;11.30;99.90
60309;DHT22;50313;52.894;6.492;2023-11-19T08:07:21;11.30;99.90
60309;DHT22;50313;52.894;6.492;2023-11-19T08:09:47;11.30;99.90
60309;DHT22;50313;52.894;6.492;2023-11-19T08:12:13;11.30;99.90
60309;DHT22;50313;52.894;6.492;2023-11-19T08:14:43;11.30;99.90
60309;DHT22;50313;52.894;6.492;2023-11-19T08:17:09;11.30;99.90
60309;DHT22;50313;52.894;6.492;2023-11-19T08:19:35;11.30;99.90
60309;DHT22;50313;52.894;6.492;2023-11-19T08:22:01;11.30;99.90
60309;DHT22;50313;52.894;6.492;2023-11-19T08:24:27;11.30;99.90
60309;DHT22;50313;52.894;6.492;2023-11-19T08:26:53;11.30;99.90
60309;DHT22;50313;52.894;6.492;2023-11-19T08:29:19;11.30;99.90
60309;DHT22;50313;52.894;6.492;2023-11-19T08:31:45;11.40;99.90
60309;DHT22;50313;52.894;6.492;2023-11-19T08:34:11;11.40;99.90
60309;DHT22;50313;52.894;6.492;2023-11-19T08:36:37;11.40;99.90
60309;DHT22;50313;52.894;6.492;2023-11-19T08:39:03;11.40;99.90
60309;DHT22;50313;52.894;6.492;2023-11-19T08:41:28;11.40;99.90
60309;DHT22;50313;52.894;6.492;2023-11-19T08:43:54;11.40;99.90
60309;DHT22;50313;52.894;6.492;2023-11-19T08:46:20;11.40;99.90
60309;DHT22;50313;52.894;6.492;2023-11-19T08:48:46;11.40;99.90
60309;DHT22;50313;52.894;6.492;2023-11-19T08:51:12;11.50;99.90
60309;DHT22;50313;52.894;6.492;2023-11-19T08:53:38;11.50;99.90
60309;DHT22;50313;52.894;6.492;2023-11-19T08:56:04;11.50;99.90
60309;DHT22;50313;52.894;6.492;2023-11-19T08:58:30;11.60;99.90
60309;DHT22;50313;52.894;6.492;2023-11-19T09:00:57;11.60;99.90
60309;DHT22;50313;52.894;6.492;2023-11-19T09:03:23;11.60;99.90
60309;DHT22;50313;52.894;6.492;2023-11-19T09:05:51;11.60;99.90
60309;DHT22;50313;52.894;6.492;2023-11-19T09:08:17;11.60;99.90
60309;DHT22;50313;52.894;6.492;2023-11-19T09:10:43;11.60;99.90
60309;DHT22;50313;52.894;6.492;2023-11-19T09:13:09;11.60;99.90
60309;DHT22;50313;52.894;6.492;2023-11-19T09:15:34;11.60;99.90
60309;DHT22;50313;52.894;6.492;2023-11-19T09:18:00;11.60;99.90
60309;DHT22;50313;52.894;6.492;2023-11-19T09:20:26;11.70;99.90
60309;DHT22;50313;52.894;6.492;2023-11-19T09:22:51;11.70;99.90
60309;DHT22;50313;52.894;6.492;2023-11-19T09:25:17;11.70;99.90
60309;DHT22;50313;52.894;6.492;2023-11-19T09:27:43;11.70;99.90
60309;DHT22;50313;52.894;6.492;2023-11-19T09:30:10;11.80;99.90
60309;DHT22;50313;52.894;6.492;2023-11-19T09:32:35;11.80;99.90
60309;DHT22;50313;52.894;6.492;2023-11-19T09:35:03;11.80;99.90
60309;DHT22;50313;52.894;6.492;2023-11-19T09:37:29;11.80;99.90
60309;DHT22;50313;52.894;6.492;2023-11-19T09:39:55;11.90;99.90
60309;DHT22;50313;52.894;6.492;2023-11-19T09:42:20;11.90;99.90
60309;DHT22;50313;52.894;6.492;2023-11-19T09:44:47;12.00;99.90
60309;DHT22;50313;52.894;6.492;2023-11-19T09:47:14;12.00;99.90
60309;DHT22;50313;52.894;6.492;2023-11-19T09:49:40;12.10;99.90
60309;DHT22;50313;52.894;6.492;2023-11-19T09:52:06;12.10;99.90
60309;DHT22;50313;52.894;6.492;2023-11-19T09:54:32;12.10;99.90
60309;DHT22;50313;52.894;6.492;2023-11-19T09:56:58;12.10;99.90
60309;DHT22;50313;52.894;6.492;2023-11-19T09:59:29;12.10;99.90
60309;DHT22;50313;52.894;6.492;2023-11-19T10:01:56;12.00;99.90
60309;DHT22;50313;52.894;6.492;2023-11-19T10:04:22;11.90;99.90
60309;DHT22;50313;52.894;6.492;2023-11-19T10:06:50;11.80;99.90
60309;DHT22;50313;52.894;6.492;2023-11-19T10:09:16;11.80;99.90
60309;DHT22;50313;52.894;6.492;2023-11-19T10:11:42;11.70;99.90
60309;DHT22;50313;52.894;6.492;2023-11-19T10:14:08;11.70;99.90
60309;DHT22;50313;52.894;6.492;2023-11-19T10:16:35;11.80;99.90
60309;DHT22;50313;52.894;6.492;2023-11-19T10:19:01;11.70;99.90
60309;DHT22;50313;52.894;6.492;2023-11-19T10:21:27;11.70;99.90
60309;DHT22;50313;52.894;6.492;2023-11-19T10:23:57;11.70;99.90
60309;DHT22;50313;52.894;6.492;2023-11-19T10:26:25;11.70;99.90
60309;DHT22;50313;52.894;6.492;2023-11-19T10:28:51;11.70;99.90
60309;DHT22;50313;52.894;6.492;2023-11-19T10:31:18;11.70;99.90
60309;DHT22;50313;52.894;6.492;2023-11-19T10:33:45;11.70;99.90
60309;DHT22;50313;52.894;6.492;2023-11-19T10:36:12;11.70;99.90
60309;DHT22;50313;52.894;6.492;2023-11-19T10:38:38;11.70;99.90
60309;DHT22;50313;52.894;6.492;2023-11-19T10:41:04;11.70;99.90
60309;DHT22;50313;52.894;6.492;2023-11-19T10:43:31;11.70;99.90
60309;DHT22;50313;52.894;6.492;2023-11-19T10:46:15;11.70;99.90
60309;DHT22;50313;52.894;6.492;2023-11-19T10:48:46;11.80;99.90
60309;DHT22;50313;52.894;6.492;2023-11-19T10:51:13;11.90;99.90
60309;DHT22;50313;52.894;6.492;2023-11-19T10:53:47;12.00;99.90
60309;DHT22;50313;52.894;6.492;2023-11-19T10:56:16;12.00;99.90
60309;DHT22;50313;52.894;6.492;2023-11-19T10:58:45;12.10;99.90
60309;DHT22;50313;52.894;6.492;2023-11-19T11:01:20;12.10;99.90
60309;DHT22;50313;52.894;6.492;2023-11-19T11:03:51;12.10;99.90
60309;DHT22;50313;52.894;6.492;2023-11-19T11:06:19;12.10;99.90
60309;DHT22;50313;52.894;6.492;2023-11-19T11:08:53;12.00;99.90
60309;DHT22;50313;52.894;6.492;2023-11-19T11:11:19;11.80;99.90
60309;DHT22;50313;52.894;6.492;2023-11-19T11:13:50;11.70;99.90
60309;DHT22;50313;52.894;6.492;2023-11-19T11:16:20;11.70;99.90
60309;DHT22;50313;52.894;6.492;2023-11-19T11:18:49;11.60;99.90
60309;DHT22;50313;52.894;6.492;2023-11-19T11:21:20;11.70;99.90
60309;DHT22;50313;52.894;6.492;2023-11-19T11:29:51;11.70;99.90
60309;DHT22;50313;52.894;6.492;2023-11-19T11:33:02;11.70;99.90
60309;DHT22;50313;52.894;6.492;2023-11-19T11:38:28;11.70;99.90
60309;DHT22;50313;52.894;6.492;2023-11-19T11:41:20;11.70;99.90
60309;DHT22;50313;52.894;6.492;2023-11-19T11:43:53;11.60;99.90
60309;DHT22;50313;52.894;6.492;2023-11-19T11:59:52;11.50;99.90
60309;DHT22;50313;52.894;6.492;2023-11-19T12:02:20;11.50;99.90
60309;DHT22;50313;52.894;6.492;2023-11-19T12:04:51;11.50;99.90
60309;DHT22;50313;52.894;6.492;2023-11-19T12:07:24;11.50;99.90
60309;DHT22;50313;52.894;6.492;2023-11-19T12:10:05;11.50;99.90
60309;DHT22;50313;52.894;6.492;2023-11-19T12:12:33;11.50;99.90
60309;DHT22;50313;52.894;6.492;2023-11-19T12:15:01;11.50;99.90
60309;DHT22;50313;52.894;6.492;2023-11-19T12:20:05;11.50;99.90
60309;DHT22;50313;52.894;6.492;2023-11-19T12:22:39;11.50;99.90
60309;DHT22;50313;52.894;6.492;2023-11-19T12:25:06;11.40;99.90
60309;DHT22;50313;52.894;6.492;2023-11-19T12:27:33;11.40;99.90
60309;DHT22;50313;52.894;6.492;2023-11-19T12:30:03;11.40;99.90
60309;DHT22;50313;52.894;6.492;2023-11-19T12:32:43;11.40;99.90
60309;DHT22;50313;52.894;6.492;2023-11-19T12:35:10;11.40;99.90
60309;DHT22;50313;52.894;6.492;2023-11-19T12:37:43;11.30;99.90
60309;DHT22;50313;52.894;6.492;2023-11-19T12:40:16;11.30;99.90
60309;DHT22;50313;52.894;6.492;2023-11-19T12:42:44;11.40;99.90
60309;DHT22;50313;52.894;6.492;2023-11-19T12:45:10;11.30;99.90
60309;DHT22;50313;52.894;6.492;2023-11-19T12:47:39;11.40;99.90
60309;DHT22;50313;52.894;6.492;2023-11-19T12:50:07;11.40;99.90
60309;DHT22;50313;52.894;6.492;2023-11-19T12:52:35;11.40;99.90
60309;DHT22;50313;52.894;6.492;2023-11-19T12:55:02;11.40;99.90
60309;DHT22;50313;52.894;6.492;2023-11-19T12:57:41;11.40;99.90
60309;DHT22;50313;52.894;6.492;2023-11-19T13:00:17;11.40;99.90
60309;DHT22;50313;52.894;6.492;2023-11-19T13:08:05;11.40;99.90
60309;DHT22;50313;52.894;6.492;2023-11-19T13:10:52;11.40;99.90
60309;DHT22;50313;52.894;6.492;2023-11-19T13:13:19;11.40;99.90
60309;DHT22;50313;52.894;6.492;2023-11-19T13:15:45;11.40;99.90
60309;DHT22;50313;52.894;6.492;2023-11-19T13:18:11;11.50;99.90
60309;DHT22;50313;52.894;6.492;2023-11-19T13:20:37;11.50;99.90
60309;DHT22;50313;52.894;6.492;2023-11-19T13:23:05;11.50;99.90
60309;DHT22;50313;52.894;6.492;2023-11-19T13:25:31;11.50;99.90
60309;DHT22;50313;52.894;6.492;2023-11-19T13:27:57;11.50;99.90
60309;DHT22;50313;52.894;6.492;2023-11-19T13:30:24;11.50;99.90
60309;DHT22;50313;52.894;6.492;2023-11-19T13:32:50;11.50;99.90
60309;DHT22;50313;52.894;6.492;2023-11-19T13:35:17;11.50;99.90
60309;DHT22;50313;52.894;6.492;2023-11-19T13:37:43;11.50;99.90
60309;DHT22;50313;52.894;6.492;2023-11-19T13:40:10;11.50;99.90
60309;DHT22;50313;52.894;6.492;2023-11-19T13:42:42;11.50;99.90
60309;DHT22;50313;52.894;6.492;2023-11-19T13:45:11;11.50;99.90
60309;DHT22;50313;52.894;6.492;2023-11-19T13:47:42;11.60;99.90
60309;DHT22;50313;52.894;6.492;2023-11-19T13:50:13;11.60;99.90
60309;DHT22;50313;52.894;6.492;2023-11-19T13:52:41;11.50;99.90
60309;DHT22;50313;52.894;6.492;2023-11-19T13:55:09;11.50;99.90
60309;DHT22;50313;52.894;6.492;2023-11-19T13:57:39;11.50;99.90
60309;DHT22;50313;52.894;6.492;2023-11-19T14:00:07;11.50;99.90
60309;DHT22;50313;52.894;6.492;2023-11-19T14:02:39;11.50;99.90
60309;DHT22;50313;52.894;6.492;2023-11-19T14:05:06;11.50;99.90
60309;DHT22;50313;52.894;6.492;2023-11-19T14:07:32;11.50;99.90
60309;DHT22;50313;52.894;6.492;2023-11-19T14:09:58;11.40;99.90
60309;DHT22;50313;52.894;6.492;2023-11-19T14:12:24;11.40;99.90
60309;DHT22;50313;52.894;6.492;2023-11-19T14:14:50;11.40;99.90
60309;DHT22;50313;52.894;6.492;2023-11-19T14:17:15;11.40;99.90
60309;DHT22;50313;52.894;6.492;2023-11-19T14:19:42;11.40;99.90
60309;DHT22;50313;52.894;6.492;2023-11-19T14:22:08;11.30;99.90
60309;DHT22;50313;52.894;6.492;2023-11-19T14:24:37;11.40;99.90
60309;DHT22;50313;52.894;6.492;2023-11-19T14:27:03;11.30;99.90
60309;DHT22;50313;52.894;6.492;2023-11-19T14:29:29;11.30;99.90
60309;DHT22;50313;52.894;6.492;2023-11-19T14:31:57;11.30;99.90
60309;DHT22;50313;52.894;6.492;2023-11-19T14:34:24;11.20;99.90
60309;DHT22;50313;52.894;6.492;2023-11-19T14:36:52;11.20;99.90
60309;DHT22;50313;52.894;6.492;2023-11-19T14:39:17;11.20;99.90
60309;DHT22;50313;52.894;6.492;2023-11-19T14:41:43;11.20;99.90
60309;DHT22;50313;52.894;6.492;2023-11-19T14:44:10;11.10;99.90
60309;DHT22;50313;52.894;6.492;2023-11-19T14:46:36;11.20;99.90
60309;DHT22;50313;52.894;6.492;2023-11-19T14:49:02;11.20;99.90
60309;DHT22;50313;52.894;6.492;2023-11-19T14:51:29;11.20;99.90
60309;DHT22;50313;52.894;6.492;2023-11-19T14:53:55;11.20;99.90
60309;DHT22;50313;52.894;6.492;2023-11-19T14:56:21;11.20;99.90
60309;DHT22;50313;52.894;6.492;2023-11-19T14:58:47;11.10;99.90
60309;DHT22;50313;52.894;6.492;2023-11-19T15:01:13;11.10;99.90
60309;DHT22;50313;52.894;6.492;2023-11-19T15:03:40;11.10;99.90
60309;DHT22;50313;52.894;6.492;2023-11-19T15:06:06;11.10;99.90
60309;DHT22;50313;52.894;6.492;2023-11-19T15:08:33;11.10;99.90
60309;DHT22;50313;52.894;6.492;2023-11-19T15:10:59;11.10;99.90
60309;DHT22;50313;52.894;6.492;2023-11-19T15:13:27;11.10;99.90
60309;DHT22;50313;52.894;6.492;2023-11-19T15:15:53;11.10;99.90
60309;DHT22;50313;52.894;6.492;2023-11-19T15:18:20;11.10;99.90
60309;DHT22;50313;52.894;6.492;2023-11-19T15:20:46;11.20;99.90
60309;DHT22;50313;52.894;6.492;2023-11-19T15:23:16;11.10;99.90
60309;DHT22;50313;52.894;6.492;2023-11-19T15:25:42;11.10;99.90
60309;DHT22;50313;52.894;6.492;2023-11-19T15:28:08;11.20;99.90
60309;DHT22;50313;52.894;6.492;2023-11-19T15:30:35;11.20;99.90
60309;DHT22;50313;52.894;6.492;2023-11-19T15:33:01;11.20;99.90
60309;DHT22;50313;52.894;6.492;2023-11-19T15:35:26;11.20;99.90
60309;DHT22;50313;52.894;6.492;2023-11-19T15:37:52;11.10;99.90
60309;DHT22;50313;52.894;6.492;2023-11-19T15:40:18;11.10;99.90
60309;DHT22;50313;52.894;6.492;2023-11-19T15:42:45;11.10;99.90
60309;DHT22;50313;52.894;6.492;2023-11-19T15:45:12;11.10;99.90
60309;DHT22;50313;52.894;6.492;2023-11-19T15:47:38;11.10;99.90
60309;DHT22;50313;52.894;6.492;2023-11-19T15:50:05;11.00;99.90
60309;DHT22;50313;52.894;6.492;2023-11-19T15:52:31;11.00;99.90
60309;DHT22;50313;52.894;6.492;2023-11-19T15:54:57;11.00;99.90
60309;DHT22;50313;52.894;6.492;2023-11-19T15:57:23;11.00;99.90
60309;DHT22;50313;52.894;6.492;2023-11-19T15:59:49;11.00;99.90
60309;DHT22;50313;52.894;6.492;2023-11-19T16:02:16;11.00;99.90